Rayford, Texas
Current Conditions -  °F | °C
As of 7:53 PM on Saturday 25 Oct 2014 (Local Time) from KIAH Reporting Station
Clear Clear  
Wind Chill: 67°   Ceiling: Unl
Heat Index: 67°   Visibility: 10mi
Dew Point: 58°   Wind: 3mph
Humidity: 73%   Direction: 180°S
Pressure: 30.09"   Gusts: NA
Location:  30.0613°N, 95.3841°W
Report Text: KIAH 260053Z 18003KT 10SM CLR 19/14 A3009 RMK AO2 SLP190 T01940144
Loading
Personal Weather Stations






























Interactive Weather Map New forecast layout! Learn more

10-Day Weather Forecast

Advertisements
Track Severe Weather on mobile